createdAt,value
2018-04-11T00:01:23.807Z,80.79
2018-04-11T00:03:51.559Z,80.87
2018-04-11T00:06:19.235Z,80.64
2018-04-11T00:08:46.992Z,80.99
2018-04-11T00:11:14.758Z,81.26
2018-04-11T00:13:42.627Z,80.11
2018-04-11T00:16:10.343Z,81.55
2018-04-11T00:18:38.158Z,79.50
2018-04-11T00:21:05.921Z,81.56
2018-04-11T00:23:33.694Z,82.46
2018-04-11T00:26:01.353Z,80.21
2018-04-11T00:28:29.178Z,80.68
2018-04-11T00:30:56.979Z,80.65
2018-04-11T00:33:24.730Z,81.40
2018-04-11T00:35:52.445Z,81.00
2018-04-11T00:38:20.167Z,81.54
2018-04-11T00:40:47.931Z,82.20
2018-04-11T00:43:15.644Z,82.43
2018-04-11T00:45:43.357Z,82.01
2018-04-11T00:48:11.179Z,83.46
2018-04-11T00:50:39.095Z,83.18
2018-04-11T00:53:18.941Z,83.26
2018-04-11T00:55:46.703Z,82.37
2018-04-11T00:58:14.624Z,81.99
2018-04-11T01:00:42.394Z,82.71
2018-04-11T01:03:10.105Z,82.38
2018-04-11T01:05:37.758Z,81.64
2018-04-11T01:08:05.489Z,82.46
2018-04-11T01:10:33.247Z,83.22
2018-04-11T01:13:01.052Z,82.79
2018-04-11T01:15:28.807Z,82.69
2018-04-11T01:17:56.636Z,82.28
2018-04-11T01:20:24.549Z,81.89
2018-04-11T01:22:52.322Z,84.34
2018-04-11T01:25:20.181Z,87.73
2018-04-11T01:27:47.836Z,87.60
2018-04-11T01:30:15.555Z,88.00
2018-04-11T01:32:43.273Z,88.13
2018-04-11T01:35:11.047Z,87.51
2018-04-11T01:37:38.686Z,88.16
2018-04-11T01:40:06.462Z,87.27
2018-04-11T01:42:34.124Z,87.95
2018-04-11T01:45:01.886Z,87.91
2018-04-11T01:47:29.719Z,88.81
2018-04-11T01:49:57.412Z,87.86
2018-04-11T01:52:25.072Z,88.13
2018-04-11T01:54:52.732Z,87.65
2018-04-11T01:57:20.463Z,86.54
2018-04-11T01:59:48.272Z,86.89
2018-04-11T02:02:15.932Z,85.95
2018-04-11T02:04:43.659Z,86.29
2018-04-11T02:07:11.459Z,86.11
2018-04-11T02:09:39.278Z,85.75
2018-04-11T02:12:06.984Z,85.33
2018-04-11T02:14:34.958Z,85.58
2018-04-11T02:17:02.825Z,84.54
2018-04-11T02:19:30.532Z,84.68
2018-04-11T02:21:58.353Z,86.05
2018-04-11T02:24:26.118Z,84.71
2018-04-11T02:26:53.993Z,84.76
2018-04-11T02:29:21.756Z,84.80
2018-04-11T02:31:49.523Z,85.42
2018-04-11T02:34:17.383Z,86.87
2018-04-11T02:36:45.249Z,85.29
2018-04-11T02:39:12.907Z,86.00
2018-04-11T02:41:40.783Z,86.51
2018-04-11T02:44:08.444Z,85.68
2018-04-11T02:46:36.163Z,86.44
2018-04-11T02:49:03.972Z,86.13
2018-04-11T02:51:31.835Z,86.66
2018-04-11T02:53:59.701Z,87.57
2018-04-11T02:56:27.428Z,87.41
2018-04-11T02:58:55.245Z,85.97
2018-04-11T03:01:23.002Z,85.42
2018-04-11T03:03:50.771Z,84.30
2018-04-11T03:06:18.468Z,83.62
2018-04-11T03:08:46.198Z,84.42
2018-04-11T03:11:13.909Z,84.68
2018-04-11T03:13:41.716Z,84.02
2018-04-11T03:16:09.375Z,86.43
2018-04-11T03:18:37.245Z,86.93
2018-04-11T03:21:04.908Z,87.30
2018-04-11T03:23:32.663Z,85.73
2018-04-11T03:26:00.399Z,85.32
2018-04-11T03:28:28.146Z,86.72
2018-04-11T03:30:55.908Z,86.98
2018-04-11T03:33:23.691Z,87.03
2018-04-11T03:35:51.490Z,86.95
2018-04-11T03:38:19.256Z,86.29
2018-04-11T03:40:47.124Z,85.58
2018-04-11T03:43:14.991Z,85.99
2018-04-11T03:45:42.755Z,86.16
2018-04-11T03:48:10.520Z,86.57
2018-04-11T03:50:38.347Z,85.49
2018-04-11T03:53:06.150Z,86.07
2018-04-11T03:55:34.024Z,85.61
2018-04-11T03:58:01.790Z,85.00
2018-04-11T04:00:29.605Z,86.23
2018-04-11T04:02:57.430Z,85.08
2018-04-11T04:05:25.291Z,86.02
2018-04-11T04:07:53.005Z,86.02
2018-04-11T04:10:20.911Z,84.92
2018-04-11T04:12:48.777Z,85.48
2018-04-11T04:15:28.421Z,85.23
2018-04-11T04:18:07.862Z,84.28
2018-04-11T04:20:37.467Z,84.91
2018-04-11T04:23:05.132Z,84.59
2018-04-11T04:25:32.996Z,84.24
2018-04-11T04:28:00.761Z,83.86
2018-04-11T04:30:28.518Z,84.00
2018-04-11T04:32:56.366Z,84.83
2018-04-11T04:35:24.154Z,84.26
2018-04-11T04:37:51.821Z,84.12
2018-04-11T04:40:19.689Z,84.35
2018-04-11T04:42:47.552Z,84.36
2018-04-11T04:45:15.272Z,84.67
2018-04-11T04:47:43.181Z,84.64
2018-04-11T04:50:11.154Z,84.93
2018-04-11T04:52:39.019Z,85.56
2018-04-11T04:55:06.737Z,86.22
2018-04-11T04:57:34.546Z,86.20
2018-04-11T05:00:02.206Z,85.78
2018-04-11T05:02:30.078Z,85.46
2018-04-11T05:04:57.943Z,85.07
2018-04-11T05:07:25.809Z,85.17
2018-04-11T05:09:53.462Z,84.71
2018-04-11T05:12:21.137Z,84.76
2018-04-11T05:14:48.802Z,85.72
2018-04-11T05:17:16.508Z,86.77
2018-04-11T05:19:44.332Z,87.05
2018-04-11T05:22:12.190Z,86.08
2018-04-11T05:24:39.844Z,84.98
2018-04-11T05:27:07.723Z,84.62
2018-04-11T05:29:35.485Z,84.07
2018-04-11T05:32:03.309Z,84.57
2018-04-11T05:34:31.221Z,84.63
2018-04-11T05:36:58.882Z,84.24
2018-04-11T05:39:26.652Z,84.67
2018-04-11T05:41:54.412Z,83.98
2018-04-11T05:44:22.189Z,84.22
2018-04-11T05:46:49.826Z,84.33
2018-04-11T05:49:17.469Z,84.35
2018-04-11T05:51:45.191Z,84.37
2018-04-11T05:54:13.237Z,85.40
2018-04-11T05:56:41.103Z,84.55
2018-04-11T05:59:08.862Z,84.11
2018-04-11T06:01:36.628Z,84.48
2018-04-11T06:04:04.424Z,84.19
2018-04-11T06:06:32.258Z,84.16
2018-04-11T06:09:00.027Z,83.76
2018-04-11T06:11:27.685Z,83.70
2018-04-11T06:13:55.551Z,83.80
2018-04-11T06:16:23.745Z,83.60
2018-04-11T06:18:51.569Z,83.53
2018-04-11T06:21:19.973Z,83.71
2018-04-11T06:23:47.841Z,83.74
2018-04-11T06:26:15.574Z,83.67
2018-04-11T06:28:43.260Z,83.27
2018-04-11T06:31:10.972Z,85.34
2018-04-11T06:33:38.739Z,85.68
2018-04-11T06:36:06.455Z,84.60
2018-04-11T06:38:34.227Z,83.00
2018-04-11T06:41:02.196Z,83.00
2018-04-11T06:43:29.958Z,83.30
2018-04-11T06:45:57.712Z,82.62
2018-04-11T06:48:25.439Z,83.11
2018-04-11T06:50:53.555Z,83.21
2018-04-11T06:53:21.328Z,84.11
2018-04-11T06:55:49.289Z,83.55
2018-04-11T06:58:17.061Z,83.07
2018-04-11T07:00:44.871Z,83.07
2018-04-11T07:03:12.680Z,82.48
2018-04-11T07:05:40.482Z,82.65
2018-04-11T07:08:08.211Z,82.38
2018-04-11T07:10:35.858Z,82.06
2018-04-11T07:13:03.540Z,81.07
2018-04-11T07:15:31.410Z,80.52
2018-04-11T07:17:59.122Z,80.62
2018-04-11T07:20:26.828Z,79.76
2018-04-11T07:22:54.791Z,79.74
2018-04-11T07:25:22.561Z,79.00
2018-04-11T07:27:50.430Z,78.80
2018-04-11T07:30:18.196Z,79.78
2018-04-11T07:32:46.062Z,79.07
2018-04-11T07:35:13.931Z,79.93
2018-04-11T07:37:41.675Z,82.15
2018-04-11T07:40:09.499Z,81.29
2018-04-11T07:42:37.371Z,78.93
2018-04-11T07:45:05.166Z,76.96
2018-04-11T07:47:33.032Z,76.54
2018-04-11T07:50:00.830Z,77.60
2018-04-11T07:52:28.677Z,78.02
2018-04-11T07:54:56.534Z,77.95
2018-04-11T07:57:24.246Z,76.90
2018-04-11T07:59:52.092Z,76.13
2018-04-11T08:02:19.951Z,75.89
2018-04-11T08:04:47.715Z,77.91
2018-04-11T08:07:15.483Z,76.40
2018-04-11T08:09:43.214Z,75.40
2018-04-11T08:12:10.908Z,75.33
2018-04-11T08:14:38.778Z,74.64
2018-04-11T08:17:06.436Z,74.57
2018-04-11T08:19:34.200Z,75.51
2018-04-11T08:22:01.961Z,75.02
2018-04-11T08:24:29.831Z,74.71
2018-04-11T08:26:57.700Z,75.43
2018-04-11T08:29:25.662Z,75.32
2018-04-11T08:31:53.533Z,76.06
2018-04-11T08:34:21.375Z,77.22
2018-04-11T08:36:49.008Z,76.96
2018-04-11T08:39:16.687Z,76.47
2018-04-11T08:41:44.309Z,76.24
2018-04-11T08:44:12.050Z,76.99
2018-04-11T08:46:39.815Z,76.59
2018-04-11T08:49:07.582Z,75.99
2018-04-11T08:51:35.335Z,75.43
2018-04-11T08:54:03.107Z,74.83
2018-04-11T08:56:30.878Z,75.44
2018-04-11T08:58:58.739Z,75.78
2018-04-11T09:01:26.500Z,74.30
2018-04-11T09:03:54.268Z,74.74
2018-04-11T09:06:21.931Z,70.93
2018-04-11T09:08:49.677Z,74.32
2018-04-11T09:11:17.466Z,72.51
2018-04-11T09:13:45.110Z,76.03
2018-04-11T09:16:12.886Z,72.46
2018-04-11T09:18:40.545Z,70.20
2018-04-11T09:21:08.414Z,71.03
2018-04-11T09:23:36.078Z,73.27
2018-04-11T09:26:04.013Z,76.54
2018-04-11T09:28:31.809Z,73.98
2018-04-11T09:30:59.499Z,71.53
2018-04-11T09:33:27.200Z,74.45
2018-04-11T09:35:55.001Z,71.75
2018-04-11T09:38:22.663Z,69.07
2018-04-11T09:40:50.429Z,67.13
2018-04-11T09:43:18.194Z,69.53
2018-04-11T09:45:45.950Z,69.39
2018-04-11T09:48:13.700Z,55.18
2018-04-11T09:50:41.382Z,47.92
2018-04-11T09:53:09.138Z,45.19
2018-04-11T09:55:36.780Z,41.96
2018-04-11T09:58:04.419Z,37.96
2018-04-11T10:00:32.027Z,36.36
2018-04-11T10:03:06.275Z,33.87
2018-04-11T10:05:33.915Z,28.99
2018-04-11T10:08:01.570Z,32.88
2018-04-11T10:10:29.187Z,39.63
2018-04-11T10:12:56.839Z,46.68
2018-04-11T10:15:24.467Z,49.85
2018-04-11T10:17:52.118Z,46.93
2018-04-11T10:20:19.801Z,43.63
2018-04-11T10:22:47.513Z,46.67
2018-04-11T10:25:15.199Z,50.85
2018-04-11T10:27:42.971Z,49.38
2018-04-11T10:30:10.702Z,52.93
2018-04-11T10:32:38.450Z,50.35
2018-04-11T10:35:06.266Z,49.00
2018-04-11T10:37:34.131Z,49.72
2018-04-11T10:40:01.854Z,46.12
2018-04-11T10:42:29.660Z,46.41
2018-04-11T10:44:57.487Z,47.42
2018-04-11T10:47:25.296Z,48.17
2018-04-11T10:49:53.058Z,46.93
2018-04-11T10:52:20.864Z,47.79
2018-04-11T10:54:48.906Z,49.51
2018-04-11T10:57:16.759Z,50.20
2018-04-11T10:59:44.427Z,50.07
2018-04-11T11:02:12.232Z,47.74
2018-04-11T11:04:39.948Z,46.47
2018-04-11T11:07:07.774Z,47.52
2018-04-11T11:09:35.535Z,47.60
2018-04-11T11:12:03.275Z,47.15
2018-04-11T11:14:30.966Z,46.41
2018-04-11T11:16:58.878Z,45.76
2018-04-11T11:19:26.648Z,45.12
2018-04-11T11:21:54.574Z,45.60
2018-04-11T11:24:22.378Z,45.06
2018-04-11T11:26:50.202Z,46.75
2018-04-11T11:29:17.900Z,46.35
2018-04-11T11:31:45.773Z,47.92
2018-04-11T11:34:13.636Z,49.28
2018-04-11T11:36:41.596Z,49.71
2018-04-11T11:39:09.369Z,48.95
2018-04-11T11:41:37.240Z,46.00
2018-04-11T11:44:04.899Z,45.63
2018-04-11T11:46:32.663Z,47.65
2018-04-11T11:49:00.327Z,47.92
2018-04-11T11:51:28.082Z,46.40
2018-04-11T11:53:55.956Z,46.45
2018-04-11T11:56:23.629Z,46.17
2018-04-11T11:58:51.283Z,47.03
2018-04-11T12:01:18.986Z,45.11
2018-04-11T12:03:46.757Z,45.24
2018-04-11T12:06:14.471Z,43.63
2018-04-11T12:08:42.288Z,42.67
2018-04-11T12:11:10.102Z,42.02
2018-04-11T12:13:37.860Z,38.37
2018-04-11T12:16:05.588Z,37.16
2018-04-11T12:18:33.498Z,36.61
2018-04-11T12:21:01.263Z,35.78
2018-04-11T12:23:28.992Z,35.13
2018-04-11T12:25:56.839Z,37.61
2018-04-11T12:28:24.547Z,37.99
2018-04-11T12:30:52.213Z,33.87
2018-04-11T12:33:19.933Z,39.27
2018-04-11T12:35:47.641Z,36.50
2018-04-11T12:38:15.466Z,35.88
2018-04-11T12:40:43.277Z,33.99
2018-04-11T12:43:11.147Z,37.25
2018-04-11T12:45:38.907Z,36.03
2018-04-11T12:48:06.787Z,34.08
2018-04-11T12:50:34.552Z,34.04
2018-04-11T12:53:02.405Z,33.92
2018-04-11T12:55:30.090Z,35.22
2018-04-11T12:57:57.936Z,39.17
2018-04-11T13:00:25.604Z,37.29
2018-04-11T13:02:53.412Z,35.42
2018-04-11T13:05:21.233Z,33.11
2018-04-11T13:07:48.945Z,32.90
2018-04-11T13:10:16.757Z,35.87
2018-04-11T13:12:44.624Z,33.39
2018-04-11T13:15:12.349Z,33.67
2018-04-11T13:17:40.054Z,34.58
2018-04-11T13:20:07.815Z,31.56
2018-04-11T13:22:35.586Z,31.82
2018-04-11T13:25:03.239Z,33.82
2018-04-11T13:27:31.013Z,34.19
2018-04-11T13:29:58.658Z,37.02
2018-04-11T13:32:26.396Z,34.38
2018-04-11T13:34:54.201Z,36.58
2018-04-11T13:37:22.063Z,36.85
2018-04-11T13:39:49.913Z,36.77
2018-04-11T13:42:17.594Z,36.45
2018-04-11T13:44:45.458Z,39.04
2018-04-11T13:47:13.877Z,41.79
2018-04-11T13:49:41.830Z,40.58
2018-04-11T13:52:09.679Z,40.07
2018-04-11T13:54:37.346Z,41.31
2018-04-11T13:57:05.307Z,40.71
2018-04-11T13:59:33.070Z,41.76
2018-04-11T14:02:01.040Z,42.50
2018-04-11T14:04:28.921Z,42.11
2018-04-11T14:06:56.774Z,38.79
2018-04-11T14:09:24.742Z,36.34
2018-04-11T14:11:52.614Z,37.89
2018-04-11T14:14:20.477Z,35.97
2018-04-11T14:16:48.344Z,35.41
2018-04-11T14:19:16.086Z,33.87
2018-04-11T14:21:43.864Z,34.34
2018-04-11T14:24:11.637Z,34.47
2018-04-11T14:26:39.361Z,34.90
2018-04-11T14:29:07.268Z,32.37
2018-04-11T14:31:34.947Z,35.41
2018-04-11T14:34:02.798Z,33.72
2018-04-11T14:36:30.527Z,31.60
2018-04-11T14:38:58.222Z,30.08
2018-04-11T14:41:25.937Z,35.06
2018-04-11T14:43:53.752Z,33.28
2018-04-11T14:46:21.478Z,32.00
2018-04-11T14:48:49.282Z,33.01
2018-04-11T14:51:17.046Z,32.80
2018-04-11T14:53:44.810Z,32.88
2018-04-11T14:56:12.513Z,32.97
2018-04-11T14:58:40.337Z,35.39
2018-04-11T15:01:08.058Z,33.79
2018-04-11T15:03:35.873Z,30.00
2018-04-11T15:06:03.593Z,31.86
2018-04-11T15:08:31.397Z,28.99
2018-04-11T15:10:59.160Z,32.05
2018-04-11T15:13:27.031Z,31.77
2018-04-11T15:15:55.629Z,33.02
2018-04-11T15:18:23.372Z,33.81
2018-04-11T15:20:51.110Z,33.31
2018-04-11T15:23:18.855Z,33.64
2018-04-11T15:25:46.668Z,35.39
2018-04-11T15:28:14.434Z,37.26
2018-04-11T15:30:42.200Z,34.11
2018-04-11T15:33:09.861Z,35.31
2018-04-11T15:35:37.625Z,34.42
2018-04-11T15:38:05.499Z,37.21
2018-04-11T15:40:33.361Z,35.45
2018-04-11T15:43:01.226Z,35.60
2018-04-11T15:45:28.991Z,35.28
2018-04-11T15:47:56.755Z,37.35
2018-04-11T15:50:24.460Z,37.43
2018-04-11T15:52:52.276Z,35.61
2018-04-11T15:55:19.995Z,38.08
2018-04-11T15:57:47.847Z,36.91
2018-04-11T16:00:15.608Z,33.50
2018-04-11T16:02:43.342Z,34.46
2018-04-11T16:05:11.062Z,34.50
2018-04-11T16:07:38.875Z,37.76
2018-04-11T16:10:06.695Z,35.17
2018-04-11T16:12:34.502Z,35.64
2018-04-11T16:15:02.267Z,35.43
2018-04-11T16:17:30.134Z,33.22
2018-04-11T16:19:57.793Z,35.28
2018-04-11T16:22:25.603Z,35.61
2018-04-11T16:24:53.276Z,36.78
2018-04-11T16:27:21.293Z,37.25
2018-04-11T16:29:49.052Z,34.68
2018-04-11T16:32:17.103Z,34.89
2018-04-11T16:34:45.000Z,35.03
2018-04-11T16:37:12.657Z,35.91
2018-04-11T16:39:40.625Z,35.23
2018-04-11T16:42:08.286Z,37.13
2018-04-11T16:44:36.163Z,37.89
2018-04-11T16:47:03.868Z,38.81
2018-04-11T16:49:31.709Z,40.49
2018-04-11T16:51:59.353Z,40.84
2018-04-11T16:54:27.067Z,40.10
2018-04-11T16:56:54.888Z,41.34
2018-04-11T16:59:22.640Z,40.68
2018-04-11T17:01:51.678Z,43.08
2018-04-11T17:04:19.562Z,42.79
2018-04-11T17:06:47.275Z,42.69
2018-04-11T17:09:15.097Z,42.87
2018-04-11T17:11:42.838Z,43.13
2018-04-11T17:14:10.605Z,43.47
2018-04-11T17:16:38.325Z,42.28
2018-04-11T17:19:06.089Z,45.83
2018-04-11T17:21:45.629Z,45.63
2018-04-11T17:24:25.379Z,47.92
2018-04-11T17:27:04.907Z,47.77
2018-04-11T17:32:37.619Z,47.75
2018-04-11T17:35:05.346Z,48.29
2018-04-11T17:37:33.106Z,48.09
2018-04-11T17:40:00.807Z,48.84
2018-04-11T17:42:28.638Z,49.78
2018-04-11T17:44:56.545Z,49.08
2018-04-11T17:47:24.305Z,47.47
2018-04-11T17:49:52.145Z,47.25
2018-04-11T17:52:19.834Z,47.18
2018-04-11T17:54:47.485Z,47.05
2018-04-11T17:57:15.259Z,46.74
2018-04-11T17:59:43.015Z,46.63
2018-04-11T18:02:10.753Z,46.23
2018-04-11T18:04:38.452Z,46.21
2018-04-11T18:07:06.215Z,46.09
2018-04-11T18:09:33.981Z,46.55
2018-04-11T18:12:01.702Z,47.08
2018-04-11T18:14:29.521Z,47.11
2018-04-11T18:16:57.171Z,47.48
2018-04-11T18:19:24.935Z,47.93
2018-04-11T18:21:52.986Z,49.75
2018-04-11T18:24:20.988Z,51.18
2018-04-11T18:26:48.742Z,52.59
2018-04-11T18:29:16.457Z,53.99
2018-04-11T18:31:44.300Z,54.27
2018-04-11T18:34:12.248Z,54.98
2018-04-11T18:36:40.000Z,55.46
2018-04-11T18:39:07.861Z,56.01
2018-04-11T18:41:35.633Z,56.24
2018-04-11T18:44:03.459Z,57.03
2018-04-11T18:46:31.160Z,57.52
2018-04-11T18:48:59.033Z,57.98
2018-04-11T18:51:26.688Z,57.81
2018-04-11T18:53:54.622Z,57.63
2018-04-11T18:56:22.436Z,58.17
2018-04-11T18:58:50.305Z,58.06
2018-04-11T19:01:18.197Z,58.02
2018-04-11T19:03:45.920Z,57.69
2018-04-11T19:06:13.581Z,57.24
2018-04-11T19:08:41.558Z,57.36
2018-04-11T19:11:09.322Z,57.19
2018-04-11T19:13:37.032Z,57.40
2018-04-11T19:16:04.850Z,57.68
2018-04-11T19:18:32.626Z,58.43
2018-04-11T19:21:00.382Z,58.80
2018-04-11T19:23:28.210Z,58.66
2018-04-11T19:25:56.011Z,59.78
2018-04-11T19:28:23.775Z,60.05
2018-04-11T19:30:51.536Z,59.26
2018-04-11T19:33:19.405Z,60.29
2018-04-11T19:35:47.273Z,59.94
2018-04-11T19:38:15.002Z,59.69
2018-04-11T19:40:42.906Z,59.94
2018-04-11T19:43:10.570Z,59.88
2018-04-11T19:45:38.281Z,59.44
2018-04-11T19:48:06.099Z,59.43
2018-04-11T19:50:33.933Z,59.38
2018-04-11T19:53:02.076Z,60.38
2018-04-11T19:55:29.899Z,60.69
2018-04-11T19:57:57.563Z,60.42
2018-04-11T20:00:25.324Z,61.08
2018-04-11T20:02:53.100Z,61.96
2018-04-11T20:05:20.905Z,62.23
2018-04-11T20:07:48.617Z,62.39
2018-04-11T20:10:16.442Z,62.45
2018-04-11T20:12:44.150Z,62.45
2018-04-11T20:15:12.121Z,62.14
2018-04-11T20:17:39.802Z,62.35
2018-04-11T20:20:07.648Z,62.01
2018-04-11T20:22:35.349Z,61.56
2018-04-11T20:25:03.307Z,61.87
2018-04-11T20:27:31.250Z,62.14
2018-04-11T20:29:59.115Z,61.70
2018-04-11T20:32:26.965Z,61.40
2018-04-11T20:34:54.747Z,61.55
2018-04-11T20:37:22.450Z,61.22
2018-04-11T20:39:50.276Z,61.12
2018-04-11T20:42:18.042Z,61.44
2018-04-11T20:44:45.912Z,61.30
2018-04-11T20:47:13.671Z,62.07
2018-04-11T20:49:41.539Z,61.56
2018-04-11T20:52:09.303Z,62.36
2018-04-11T20:54:37.117Z,62.11
2018-04-11T20:57:05.037Z,62.01
2018-04-11T20:59:32.903Z,61.79
2018-04-11T21:02:00.668Z,61.98
2018-04-11T21:04:28.432Z,62.23
2018-04-11T21:06:56.200Z,63.37
2018-04-11T21:09:24.092Z,63.28
2018-04-11T21:11:51.723Z,63.45
2018-04-11T21:14:19.484Z,63.43
2018-04-11T21:16:47.255Z,63.57
2018-04-11T21:19:15.124Z,64.61
2018-04-11T21:21:42.847Z,64.68
2018-04-11T21:24:10.652Z,64.12
2018-04-11T21:26:38.371Z,64.27
2018-04-11T21:29:06.077Z,64.57
2018-04-11T21:31:33.841Z,63.72
2018-04-11T21:34:01.606Z,63.50
2018-04-11T21:36:29.323Z,63.20
2018-04-11T21:38:57.177Z,62.87
2018-04-11T21:41:24.793Z,62.53
2018-04-11T21:43:52.573Z,62.10
2018-04-11T21:46:20.435Z,63.65
2018-04-11T21:48:48.140Z,64.70
2018-04-11T21:51:15.949Z,65.46
2018-04-11T21:53:43.723Z,65.96
2018-04-11T21:56:11.496Z,65.37
2018-04-11T21:58:39.222Z,65.28
2018-04-11T22:01:06.994Z,65.20
2018-04-11T22:03:34.788Z,65.44
2018-04-11T22:06:02.647Z,65.75
2018-04-11T22:08:30.413Z,66.17
2018-04-11T22:10:58.177Z,65.72
2018-04-11T22:13:25.939Z,67.23
2018-04-11T22:15:53.888Z,66.48
2018-04-11T22:18:21.572Z,66.53
2018-04-11T22:20:49.227Z,67.55
2018-04-11T22:23:17.099Z,65.33
2018-04-11T22:25:44.764Z,65.68
2018-04-11T22:28:12.424Z,66.03
2018-04-11T22:30:40.099Z,67.08
2018-04-11T22:33:07.811Z,67.79
2018-04-11T22:35:35.615Z,68.47
2018-04-11T22:38:03.277Z,68.14
2018-04-11T22:40:32.872Z,67.97
2018-04-11T22:43:00.538Z,68.01
2018-04-11T22:45:28.288Z,68.26
2018-04-11T22:47:56.030Z,68.59
2018-04-11T22:50:23.942Z,68.38
2018-04-11T22:52:51.773Z,68.50
2018-04-11T22:55:19.464Z,68.40
2018-04-11T22:57:47.237Z,67.82
2018-04-11T23:00:15.210Z,67.79
2018-04-11T23:02:42.970Z,67.68
2018-04-11T23:05:10.838Z,68.51
2018-04-11T23:07:38.585Z,68.61
2018-04-11T23:10:06.289Z,68.90
2018-04-11T23:12:34.131Z,69.24
2018-04-11T23:15:02.084Z,68.82
2018-04-11T23:17:29.865Z,68.83
2018-04-11T23:19:57.733Z,69.16
2018-04-11T23:22:25.464Z,68.71
2018-04-11T23:24:53.369Z,68.75
2018-04-11T23:27:21.135Z,68.79
2018-04-11T23:29:48.950Z,68.69
2018-04-11T23:32:16.712Z,67.69
2018-04-11T23:34:44.601Z,67.20
2018-04-11T23:37:12.287Z,66.59
2018-04-11T23:39:40.052Z,66.69
2018-04-11T23:42:07.770Z,66.46
2018-04-11T23:44:35.514Z,66.20
2018-04-11T23:47:03.202Z,66.51
2018-04-11T23:49:31.006Z,66.10
2018-04-11T23:51:58.773Z,65.66
2018-04-11T23:54:26.538Z,65.96
2018-04-11T23:56:54.246Z,67.01
2018-04-11T23:59:22.067Z,67.64
